sensor_id;sensor_type;location;lat;lon;timestamp;pressure;altitude;pressure_sealevel;temperature;humidity
79376;BME280;68846;53.150;18.136;2023-06-22T00:01:17;101288.77;;;20.87;69.58
79376;BME280;68846;53.150;18.136;2023-06-22T00:03:44;101286.64;;;20.86;69.54
79376;BME280;68846;53.150;18.136;2023-06-22T00:06:10;101283.17;;;20.80;69.54
79376;BME280;68846;53.150;18.136;2023-06-22T00:08:37;101295.87;;;20.81;69.49
79376;BME280;68846;53.150;18.136;2023-06-22T00:11:05;101301.44;;;20.71;69.56
79376;BME280;68846;53.150;18.136;2023-06-22T00:13:31;101306.88;;;20.68;69.83
79376;BME280;68846;53.150;18.136;2023-06-22T00:15:57;101311.00;;;20.68;69.91
79376;BME280;68846;53.150;18.136;2023-06-22T00:18:23;101314.38;;;20.70;69.89
79376;BME280;68846;53.150;18.136;2023-06-22T00:20:55;101314.84;;;20.73;69.96
79376;BME280;68846;53.150;18.136;2023-06-22T00:23:23;101313.42;;;20.72;69.89
79376;BME280;68846;53.150;18.136;2023-06-22T00:25:50;101313.80;;;20.71;69.82
79376;BME280;68846;53.150;18.136;2023-06-22T00:28:17;101315.25;;;20.71;70.00
79376;BME280;68846;53.150;18.136;2023-06-22T00:30:43;101312.38;;;20.71;70.09
79376;BME280;68846;53.150;18.136;2023-06-22T00:33:09;101306.34;;;20.68;70.00
79376;BME280;68846;53.150;18.136;2023-06-22T00:35:36;101314.83;;;20.66;70.05
79376;BME280;68846;53.150;18.136;2023-06-22T00:38:02;101320.40;;;20.64;70.11
79376;BME280;68846;53.150;18.136;2023-06-22T00:40:31;101319.00;;;20.62;70.05
79376;BME280;68846;53.150;18.136;2023-06-22T00:42:58;101319.70;;;20.63;70.03
79376;BME280;68846;53.150;18.136;2023-06-22T00:45:26;101320.81;;;20.61;70.08
79376;BME280;68846;53.150;18.136;2023-06-22T00:47:55;101321.52;;;20.61;69.99
79376;BME280;68846;53.150;18.136;2023-06-22T00:50:24;101324.77;;;20.60;69.99
79376;BME280;68846;53.150;18.136;2023-06-22T00:52:53;101310.44;;;20.52;69.92
79376;BME280;68846;53.150;18.136;2023-06-22T00:55:20;101322.49;;;20.57;70.17
79376;BME280;68846;53.150;18.136;2023-06-22T00:57:48;101323.40;;;20.58;69.96
79376;BME280;68846;53.150;18.136;2023-06-22T01:00:15;101321.93;;;20.59;70.01
79376;BME280;68846;53.150;18.136;2023-06-22T01:02:46;101321.73;;;20.60;69.84
79376;BME280;68846;53.150;18.136;2023-06-22T01:05:14;101323.11;;;20.62;69.84
79376;BME280;68846;53.150;18.136;2023-06-22T01:10:48;101317.88;;;20.55;69.85
79376;BME280;68846;53.150;18.136;2023-06-22T01:16:23;101318.05;;;20.47;69.81
79376;BME280;68846;53.150;18.136;2023-06-22T01:18:53;101320.97;;;20.43;69.91
79376;BME280;68846;53.150;18.136;2023-06-22T01:21:22;101323.18;;;20.40;69.89
79376;BME280;68846;53.150;18.136;2023-06-22T01:26:47;101320.09;;;20.23;69.72
79376;BME280;68846;53.150;18.136;2023-06-22T01:29:21;101326.85;;;20.16;69.85
79376;BME280;68846;53.150;18.136;2023-06-22T01:31:49;101323.11;;;20.14;69.92
79376;BME280;68846;53.150;18.136;2023-06-22T01:34:17;101325.86;;;20.12;69.86
79376;BME280;68846;53.150;18.136;2023-06-22T01:36:44;101320.37;;;20.10;69.98
79376;BME280;68846;53.150;18.136;2023-06-22T01:39:11;101322.19;;;20.07;69.95
79376;BME280;68846;53.150;18.136;2023-06-22T01:41:38;101325.09;;;20.04;69.90
79376;BME280;68846;53.150;18.136;2023-06-22T01:44:05;101323.86;;;20.02;69.89
79376;BME280;68846;53.150;18.136;2023-06-22T01:46:36;101325.84;;;20.02;69.90
79376;BME280;68846;53.150;18.136;2023-06-22T01:49:03;101322.14;;;19.99;69.70
79376;BME280;68846;53.150;18.136;2023-06-22T01:51:30;101321.17;;;19.94;69.70
79376;BME280;68846;53.150;18.136;2023-06-22T01:53:59;101316.98;;;19.88;69.59
79376;BME280;68846;53.150;18.136;2023-06-22T01:56:26;101315.42;;;19.84;69.57
79376;BME280;68846;53.150;18.136;2023-06-22T02:01:37;101315.30;;;19.82;69.46
79376;BME280;68846;53.150;18.136;2023-06-22T02:04:21;101318.56;;;19.79;69.45
79376;BME280;68846;53.150;18.136;2023-06-22T02:06:58;101321.85;;;19.75;69.35
79376;BME280;68846;53.150;18.136;2023-06-22T02:09:29;101318.71;;;19.70;69.46
79376;BME280;68846;53.150;18.136;2023-06-22T02:11:56;101320.08;;;19.64;69.37
79376;BME280;68846;53.150;18.136;2023-06-22T02:14:23;101317.99;;;19.60;69.63
79376;BME280;68846;53.150;18.136;2023-06-22T02:16:51;101317.14;;;19.57;69.65
79376;BME280;68846;53.150;18.136;2023-06-22T02:19:22;101316.98;;;19.53;69.71
79376;BME280;68846;53.150;18.136;2023-06-22T02:21:49;101318.79;;;19.52;69.71
79376;BME280;68846;53.150;18.136;2023-06-22T02:24:15;101327.17;;;19.52;69.63
79376;BME280;68846;53.150;18.136;2023-06-22T02:26:42;101337.24;;;19.48;69.65
79376;BME280;68846;53.150;18.136;2023-06-22T02:29:10;101339.86;;;19.41;69.57
79376;BME280;68846;53.150;18.136;2023-06-22T02:31:37;101346.94;;;19.34;69.52
79376;BME280;68846;53.150;18.136;2023-06-22T02:34:03;101346.86;;;19.27;69.51
79376;BME280;68846;53.150;18.136;2023-06-22T02:36:29;101350.14;;;19.22;69.47
79376;BME280;68846;53.150;18.136;2023-06-22T02:38:56;101350.98;;;19.15;69.43
79376;BME280;68846;53.150;18.136;2023-06-22T02:41:27;101351.39;;;19.10;69.71
79376;BME280;68846;53.150;18.136;2023-06-22T02:43:56;101354.09;;;19.08;69.70
79376;BME280;68846;53.150;18.136;2023-06-22T02:46:22;101355.86;;;19.09;69.57
79376;BME280;68846;53.150;18.136;2023-06-22T02:48:48;101354.77;;;19.10;69.69
79376;BME280;68846;53.150;18.136;2023-06-22T02:51:15;101355.29;;;19.11;69.62
79376;BME280;68846;53.150;18.136;2023-06-22T02:53:41;101353.86;;;19.11;69.71
79376;BME280;68846;53.150;18.136;2023-06-22T02:56:12;101356.17;;;19.13;69.72
79376;BME280;68846;53.150;18.136;2023-06-22T02:58:39;101357.77;;;19.13;69.79
79376;BME280;68846;53.150;18.136;2023-06-22T03:01:07;101364.05;;;19.11;69.67
79376;BME280;68846;53.150;18.136;2023-06-22T03:03:35;101363.55;;;19.08;69.78
79376;BME280;68846;53.150;18.136;2023-06-22T03:06:01;101363.55;;;19.08;69.79
79376;BME280;68846;53.150;18.136;2023-06-22T03:08:28;101362.85;;;19.07;69.79
79376;BME280;68846;53.150;18.136;2023-06-22T03:10:54;101365.92;;;19.04;69.76
79376;BME280;68846;53.150;18.136;2023-06-22T03:13:21;101367.25;;;18.97;69.83
79376;BME280;68846;53.150;18.136;2023-06-22T03:15:47;101369.48;;;18.91;69.83
79376;BME280;68846;53.150;18.136;2023-06-22T03:18:13;101375.64;;;18.84;70.01
79376;BME280;68846;53.150;18.136;2023-06-22T03:20:39;101380.17;;;18.78;69.99
79376;BME280;68846;53.150;18.136;2023-06-22T03:23:08;101381.84;;;18.72;70.01
79376;BME280;68846;53.150;18.136;2023-06-22T03:25:35;101382.74;;;18.70;69.94
79376;BME280;68846;53.150;18.136;2023-06-22T03:28:02;101390.80;;;18.68;70.04
79376;BME280;68846;53.150;18.136;2023-06-22T03:30:28;101390.64;;;18.66;69.98
79376;BME280;68846;53.150;18.136;2023-06-22T03:32:54;101383.69;;;18.63;70.01
79376;BME280;68846;53.150;18.136;2023-06-22T03:35:21;101386.77;;;18.60;69.95
79376;BME280;68846;53.150;18.136;2023-06-22T03:37:47;101388.58;;;18.57;69.98
79376;BME280;68846;53.150;18.136;2023-06-22T03:40:14;101392.66;;;18.60;70.06
79376;BME280;68846;53.150;18.136;2023-06-22T03:42:40;101392.08;;;18.64;69.99
79376;BME280;68846;53.150;18.136;2023-06-22T03:45:09;101395.79;;;18.69;69.93
79376;BME280;68846;53.150;18.136;2023-06-22T03:47:35;101399.66;;;18.74;69.78
79376;BME280;68846;53.150;18.136;2023-06-22T03:50:02;101406.58;;;18.77;69.70
79376;BME280;68846;53.150;18.136;2023-06-22T03:52:29;101409.96;;;18.78;69.47
79376;BME280;68846;53.150;18.136;2023-06-22T03:54:56;101419.08;;;18.78;69.57
79376;BME280;68846;53.150;18.136;2023-06-22T03:57:22;101414.10;;;18.75;69.56
79376;BME280;68846;53.150;18.136;2023-06-22T03:59:49;101416.47;;;18.72;69.68
79376;BME280;68846;53.150;18.136;2023-06-22T04:02:16;101409.38;;;18.67;69.65
79376;BME280;68846;53.150;18.136;2023-06-22T04:04:42;101405.43;;;18.69;69.60
79376;BME280;68846;53.150;18.136;2023-06-22T04:07:09;101408.23;;;18.74;69.71
79376;BME280;68846;53.150;18.136;2023-06-22T04:09:35;101404.11;;;18.75;69.59
79376;BME280;68846;53.150;18.136;2023-06-22T04:12:01;101410.35;;;18.75;69.67
79376;BME280;68846;53.150;18.136;2023-06-22T04:14:28;101411.39;;;18.77;69.64
79376;BME280;68846;53.150;18.136;2023-06-22T04:16:54;101413.19;;;18.78;69.74
79376;BME280;68846;53.150;18.136;2023-06-22T04:19:20;101411.18;;;18.80;69.59
79376;BME280;68846;53.150;18.136;2023-06-22T04:21:46;101410.23;;;18.86;69.55
79376;BME280;68846;53.150;18.136;2023-06-22T04:24:14;101411.97;;;18.90;69.49
79376;BME280;68846;53.150;18.136;2023-06-22T04:26:41;101417.45;;;18.95;69.41
79376;BME280;68846;53.150;18.136;2023-06-22T04:29:08;101420.40;;;19.00;69.36
79376;BME280;68846;53.150;18.136;2023-06-22T04:31:34;101420.38;;;19.03;69.22
79376;BME280;68846;53.150;18.136;2023-06-22T04:34:03;101414.39;;;18.96;69.16
79376;BME280;68846;53.150;18.136;2023-06-22T04:36:37;101413.73;;;18.92;69.39
79376;BME280;68846;53.150;18.136;2023-06-22T04:39:09;101408.87;;;18.95;69.39
79376;BME280;68846;53.150;18.136;2023-06-22T04:41:36;101408.46;;;18.99;69.29
79376;BME280;68846;53.150;18.136;2023-06-22T04:44:12;101407.30;;;19.07;69.21
79376;BME280;68846;53.150;18.136;2023-06-22T04:46:39;101406.34;;;19.13;68.94
79376;BME280;68846;53.150;18.136;2023-06-22T04:49:07;101407.52;;;19.19;69.03
79376;BME280;68846;53.150;18.136;2023-06-22T04:51:42;101410.11;;;19.25;69.02
79376;BME280;68846;53.150;18.136;2023-06-22T04:54:09;101415.40;;;19.30;68.90
79376;BME280;68846;53.150;18.136;2023-06-22T04:56:35;101412.70;;;19.32;68.71
79376;BME280;68846;53.150;18.136;2023-06-22T04:59:01;101414.60;;;19.35;68.70
79376;BME280;68846;53.150;18.136;2023-06-22T05:01:29;101419.93;;;19.37;68.48
79376;BME280;68846;53.150;18.136;2023-06-22T05:04:00;101428.13;;;19.39;68.54
79376;BME280;68846;53.150;18.136;2023-06-22T05:06:29;101430.40;;;19.42;68.62
79376;BME280;68846;53.150;18.136;2023-06-22T05:08:57;101426.61;;;19.45;68.41
79376;BME280;68846;53.150;18.136;2023-06-22T05:11:27;101416.67;;;19.41;68.31
79376;BME280;68846;53.150;18.136;2023-06-22T05:13:54;101417.56;;;19.41;68.17
79376;BME280;68846;53.150;18.136;2023-06-22T05:16:22;101426.56;;;19.48;68.19
79376;BME280;68846;53.150;18.136;2023-06-22T05:18:54;101436.19;;;19.50;68.25
79376;BME280;68846;53.150;18.136;2023-06-22T05:21:26;101441.64;;;19.57;68.25
79376;BME280;68846;53.150;18.136;2023-06-22T05:23:53;101446.80;;;19.60;68.02
79376;BME280;68846;53.150;18.136;2023-06-22T05:26:20;101445.16;;;19.63;67.96
79376;BME280;68846;53.150;18.136;2023-06-22T05:28:47;101430.00;;;19.60;67.91
79376;BME280;68846;53.150;18.136;2023-06-22T05:31:15;101440.54;;;19.73;67.78
79376;BME280;68846;53.150;18.136;2023-06-22T05:33:42;101440.98;;;19.78;67.68
79376;BME280;68846;53.150;18.136;2023-06-22T05:36:09;101443.95;;;19.84;67.44
79376;BME280;68846;53.150;18.136;2023-06-22T05:38:36;101454.45;;;19.87;67.30
79376;BME280;68846;53.150;18.136;2023-06-22T05:41:03;101456.03;;;19.88;67.05
79376;BME280;68846;53.150;18.136;2023-06-22T05:43:30;101454.45;;;19.87;66.76
79376;BME280;68846;53.150;18.136;2023-06-22T05:45:56;101454.48;;;19.85;66.90
79376;BME280;68846;53.150;18.136;2023-06-22T05:48:22;101457.13;;;19.87;67.09
79376;BME280;68846;53.150;18.136;2023-06-22T05:50:49;101461.00;;;19.91;66.97
79376;BME280;68846;53.150;18.136;2023-06-22T05:53:15;101451.26;;;19.96;66.64
79376;BME280;68846;53.150;18.136;2023-06-22T05:55:41;101444.37;;;20.03;66.60
79376;BME280;68846;53.150;18.136;2023-06-22T05:58:08;101446.60;;;20.08;66.40
79376;BME280;68846;53.150;18.136;2023-06-22T06:00:34;101446.16;;;20.13;66.45
79376;BME280;68846;53.150;18.136;2023-06-22T06:03:01;101446.23;;;20.20;66.35
79376;BME280;68846;53.150;18.136;2023-06-22T06:05:31;101443.64;;;20.24;65.99
79376;BME280;68846;53.150;18.136;2023-06-22T06:07:59;101442.54;;;20.26;65.57
79376;BME280;68846;53.150;18.136;2023-06-22T06:10:27;101441.09;;;20.27;65.66
79376;BME280;68846;53.150;18.136;2023-06-22T06:12:58;101440.03;;;20.27;65.11
79376;BME280;68846;53.150;18.136;2023-06-22T06:15:25;101445.76;;;20.26;65.30
79376;BME280;68846;53.150;18.136;2023-06-22T06:17:52;101446.29;;;20.28;65.38
79376;BME280;68846;53.150;18.136;2023-06-22T06:20:20;101434.11;;;20.27;65.26
79376;BME280;68846;53.150;18.136;2023-06-22T06:22:48;101439.16;;;20.36;64.95
79376;BME280;68846;53.150;18.136;2023-06-22T06:25:14;101437.83;;;20.40;65.12
79376;BME280;68846;53.150;18.136;2023-06-22T06:27:45;101438.29;;;20.46;64.85
79376;BME280;68846;53.150;18.136;2023-06-22T06:30:13;101444.63;;;20.52;64.63
79376;BME280;68846;53.150;18.136;2023-06-22T06:32:40;101453.46;;;20.58;64.42
79376;BME280;68846;53.150;18.136;2023-06-22T06:35:07;101456.20;;;20.66;64.37
79376;BME280;68846;53.150;18.136;2023-06-22T06:37:39;101456.61;;;20.71;64.25
79376;BME280;68846;53.150;18.136;2023-06-22T06:40:31;101456.50;;;20.77;63.05
79376;BME280;68846;53.150;18.136;2023-06-22T06:42:57;101442.98;;;20.73;62.29
79376;BME280;68846;53.150;18.136;2023-06-22T06:45:24;101448.98;;;20.78;62.52
79376;BME280;68846;53.150;18.136;2023-06-22T06:47:51;101445.88;;;20.80;61.57
79376;BME280;68846;53.150;18.136;2023-06-22T06:50:18;101446.98;;;20.79;61.03
79376;BME280;68846;53.150;18.136;2023-06-22T06:52:44;101452.51;;;20.80;61.03
79376;BME280;68846;53.150;18.136;2023-06-22T06:55:11;101447.67;;;20.80;60.41
79376;BME280;68846;53.150;18.136;2023-06-22T06:57:38;101438.72;;;20.80;60.63
79376;BME280;68846;53.150;18.136;2023-06-22T07:00:06;101434.91;;;20.83;60.87
79376;BME280;68846;53.150;18.136;2023-06-22T07:02:36;101434.66;;;20.87;60.81
79376;BME280;68846;53.150;18.136;2023-06-22T07:05:02;101436.52;;;20.92;60.62
79376;BME280;68846;53.150;18.136;2023-06-22T07:07:30;101442.69;;;20.97;60.69
79376;BME280;68846;53.150;18.136;2023-06-22T07:09:58;101442.75;;;21.03;60.28
79376;BME280;68846;53.150;18.136;2023-06-22T07:12:25;101438.89;;;21.08;59.60
79376;BME280;68846;53.150;18.136;2023-06-22T07:14:53;101442.58;;;21.11;59.11
79376;BME280;68846;53.150;18.136;2023-06-22T07:17:19;101429.02;;;21.09;58.90
79376;BME280;68846;53.150;18.136;2023-06-22T07:19:46;101441.39;;;21.18;59.15
79376;BME280;68846;53.150;18.136;2023-06-22T07:22:13;101440.17;;;21.15;58.77
79376;BME280;68846;53.150;18.136;2023-06-22T07:24:40;101452.20;;;21.23;58.06
79376;BME280;68846;53.150;18.136;2023-06-22T07:27:06;101452.48;;;21.26;58.29
79376;BME280;68846;53.150;18.136;2023-06-22T07:29:33;101450.30;;;21.29;58.42
79376;BME280;68846;53.150;18.136;2023-06-22T07:32:00;101452.59;;;21.31;57.79
79376;BME280;68846;53.150;18.136;2023-06-22T07:34:27;101455.77;;;21.32;58.48
79376;BME280;68846;53.150;18.136;2023-06-22T07:36:53;101460.35;;;21.37;58.25
79376;BME280;68846;53.150;18.136;2023-06-22T07:39:21;101461.71;;;21.40;58.23
79376;BME280;68846;53.150;18.136;2023-06-22T07:41:52;101463.79;;;21.44;58.25
79376;BME280;68846;53.150;18.136;2023-06-22T07:44:19;101464.80;;;21.47;57.25
79376;BME280;68846;53.150;18.136;2023-06-22T07:46:47;101468.33;;;21.49;56.84
79376;BME280;68846;53.150;18.136;2023-06-22T07:49:13;101468.79;;;21.52;56.68
79376;BME280;68846;53.150;18.136;2023-06-22T07:51:40;101475.36;;;21.55;55.73
79376;BME280;68846;53.150;18.136;2023-06-22T07:54:08;101475.52;;;21.56;56.00
79376;BME280;68846;53.150;18.136;2023-06-22T07:56:36;101470.16;;;21.56;56.15
79376;BME280;68846;53.150;18.136;2023-06-22T07:59:03;101469.98;;;21.63;55.79
79376;BME280;68846;53.150;18.136;2023-06-22T08:01:30;101466.71;;;21.66;56.08
79376;BME280;68846;53.150;18.136;2023-06-22T08:03:56;101464.23;;;21.72;56.11
79376;BME280;68846;53.150;18.136;2023-06-22T08:06:22;101467.14;;;21.78;55.92
79376;BME280;68846;53.150;18.136;2023-06-22T08:08:48;101469.73;;;21.82;55.38
79376;BME280;68846;53.150;18.136;2023-06-22T08:11:15;101477.34;;;21.86;55.10
79376;BME280;68846;53.150;18.136;2023-06-22T08:13:41;101477.27;;;21.89;54.68
79376;BME280;68846;53.150;18.136;2023-06-22T08:16:07;101480.41;;;21.93;54.41
79376;BME280;68846;53.150;18.136;2023-06-22T08:18:33;101480.67;;;21.98;54.51
79376;BME280;68846;53.150;18.136;2023-06-22T08:21:00;101478.09;;;22.00;53.57
79376;BME280;68846;53.150;18.136;2023-06-22T08:23:27;101485.36;;;22.04;53.00
79376;BME280;68846;53.150;18.136;2023-06-22T08:25:53;101480.38;;;22.02;53.18
79376;BME280;68846;53.150;18.136;2023-06-22T08:28:19;101486.30;;;22.10;53.66
79376;BME280;68846;53.150;18.136;2023-06-22T08:30:45;101479.34;;;22.16;54.18
79376;BME280;68846;53.150;18.136;2023-06-22T08:33:12;101473.98;;;22.23;53.72
79376;BME280;68846;53.150;18.136;2023-06-22T08:35:38;101481.54;;;22.30;53.28
79376;BME280;68846;53.150;18.136;2023-06-22T08:38:05;101477.90;;;22.31;52.19
79376;BME280;68846;53.150;18.136;2023-06-22T08:40:31;101481.98;;;22.33;52.56
79376;BME280;68846;53.150;18.136;2023-06-22T08:42:57;101480.46;;;22.36;52.42
79376;BME280;68846;53.150;18.136;2023-06-22T08:45:23;101481.05;;;22.41;52.36
79376;BME280;68846;53.150;18.136;2023-06-22T08:47:50;101479.63;;;22.48;52.16
79376;BME280;68846;53.150;18.136;2023-06-22T08:50:16;101476.05;;;22.54;52.18
79376;BME280;68846;53.150;18.136;2023-06-22T08:52:43;101473.63;;;22.58;52.05
79376;BME280;68846;53.150;18.136;2023-06-22T08:55:10;101471.17;;;22.63;52.01
79376;BME280;68846;53.150;18.136;2023-06-22T08:57:36;101466.91;;;22.67;51.86
79376;BME280;68846;53.150;18.136;2023-06-22T09:00:07;101462.79;;;22.74;51.82
79376;BME280;68846;53.150;18.136;2023-06-22T09:02:44;101462.41;;;22.81;52.29
79376;BME280;68846;53.150;18.136;2023-06-22T09:05:11;101467.85;;;22.86;52.05
79376;BME280;68846;53.150;18.136;2023-06-22T09:07:37;101467.39;;;22.91;51.51
79376;BME280;68846;53.150;18.136;2023-06-22T09:10:04;101470.02;;;22.93;50.56
79376;BME280;68846;53.150;18.136;2023-06-22T09:12:31;101470.28;;;22.96;50.52
79376;BME280;68846;53.150;18.136;2023-06-22T09:14:59;101471.95;;;23.01;50.40
79376;BME280;68846;53.150;18.136;2023-06-22T09:17:27;101468.80;;;23.05;50.28
79376;BME280;68846;53.150;18.136;2023-06-22T09:19:53;101452.97;;;23.05;50.46
79376;BME280;68846;53.150;18.136;2023-06-22T09:22:20;101460.00;;;23.17;50.40
79376;BME280;68846;53.150;18.136;2023-06-22T09:24:46;101452.67;;;23.21;49.91
79376;BME280;68846;53.150;18.136;2023-06-22T09:27:13;101443.15;;;23.21;49.68
79376;BME280;68846;53.150;18.136;2023-06-22T09:29:39;101450.20;;;23.32;49.20
79376;BME280;68846;53.150;18.136;2023-06-22T09:32:06;101445.59;;;23.42;48.67
79376;BME280;68846;53.150;18.136;2023-06-22T09:34:32;101443.75;;;23.55;48.62
79376;BME280;68846;53.150;18.136;2023-06-22T09:36:59;101436.89;;;23.62;48.04
79376;BME280;68846;53.150;18.136;2023-06-22T09:39:26;101429.86;;;23.69;47.95
79376;BME280;68846;53.150;18.136;2023-06-22T09:41:52;101431.49;;;23.74;48.16
79376;BME280;68846;53.150;18.136;2023-06-22T09:44:19;101430.33;;;23.82;48.39
79376;BME280;68846;53.150;18.136;2023-06-22T09:46:45;101433.23;;;23.92;48.12
79376;BME280;68846;53.150;18.136;2023-06-22T09:49:11;101434.23;;;24.01;47.37
79376;BME280;68846;53.150;18.136;2023-06-22T09:51:37;101436.69;;;24.08;47.49
79376;BME280;68846;53.150;18.136;2023-06-22T09:54:04;101437.10;;;24.17;47.03
79376;BME280;68846;53.150;18.136;2023-06-22T09:56:30;101442.52;;;24.27;45.61
79376;BME280;68846;53.150;18.136;2023-06-22T09:58:58;101436.65;;;24.36;45.39
79376;BME280;68846;53.150;18.136;2023-06-22T10:01:24;101432.16;;;24.46;45.39
79376;BME280;68846;53.150;18.136;2023-06-22T10:03:52;101440.29;;;24.56;44.77
79376;BME280;68846;53.150;18.136;2023-06-22T10:06:22;101440.55;;;24.64;45.05
79376;BME280;68846;53.150;18.136;2023-06-22T10:08:50;101435.59;;;24.72;44.80
79376;BME280;68846;53.150;18.136;2023-06-22T10:11:16;101429.85;;;24.76;44.64
79376;BME280;68846;53.150;18.136;2023-06-22T10:13:43;101437.88;;;24.93;44.48
79376;BME280;68846;53.150;18.136;2023-06-22T10:16:09;101436.91;;;25.05;44.61
79376;BME280;68846;53.150;18.136;2023-06-22T10:18:35;101435.77;;;25.16;44.02
79376;BME280;68846;53.150;18.136;2023-06-22T10:21:02;101425.98;;;25.22;43.84
79376;BME280;68846;53.150;18.136;2023-06-22T10:23:28;101441.31;;;25.36;41.90
79376;BME280;68846;53.150;18.136;2023-06-22T10:25:54;101431.04;;;25.41;42.66
79376;BME280;68846;53.150;18.136;2023-06-22T10:28:23;101427.36;;;25.48;41.74
79376;BME280;68846;53.150;18.136;2023-06-22T10:30:50;101430.96;;;25.57;41.18
79376;BME280;68846;53.150;18.136;2023-06-22T10:33:16;101428.41;;;25.66;40.68
79376;BME280;68846;53.150;18.136;2023-06-22T10:35:42;101424.73;;;25.74;41.02
79376;BME280;68846;53.150;18.136;2023-06-22T10:38:08;101420.68;;;25.84;41.24
79376;BME280;68846;53.150;18.136;2023-06-22T10:40:34;101425.91;;;25.97;41.09
79376;BME280;68846;53.150;18.136;2023-06-22T10:43:00;101430.45;;;26.14;40.77
79376;BME280;68846;53.150;18.136;2023-06-22T10:45:27;101426.23;;;26.28;40.07
79376;BME280;68846;53.150;18.136;2023-06-22T10:47:53;101426.04;;;26.42;39.85
79376;BME280;68846;53.150;18.136;2023-06-22T10:50:19;101424.16;;;26.56;39.37
79376;BME280;68846;53.150;18.136;2023-06-22T10:52:46;101418.41;;;26.68;39.33
79376;BME280;68846;53.150;18.136;2023-06-22T10:55:12;101414.52;;;26.78;38.70
79376;BME280;68846;53.150;18.136;2023-06-22T10:57:38;101413.65;;;26.89;38.92
79376;BME280;68846;53.150;18.136;2023-06-22T11:00:09;101404.89;;;27.03;38.77
79376;BME280;68846;53.150;18.136;2023-06-22T11:02:37;101404.14;;;27.11;37.66
79376;BME280;68846;53.150;18.136;2023-06-22T11:05:04;101405.48;;;27.17;38.04
79376;BME280;68846;53.150;18.136;2023-06-22T11:07:30;101405.58;;;27.27;38.16
79376;BME280;68846;53.150;18.136;2023-06-22T11:09:57;101407.10;;;27.33;37.51
79376;BME280;68846;53.150;18.136;2023-06-22T11:12:23;101410.16;;;27.41;38.04
79376;BME280;68846;53.150;18.136;2023-06-22T11:14:49;101404.55;;;27.44;37.83
79376;BME280;68846;53.150;18.136;2023-06-22T11:17:17;101403.87;;;27.51;37.41
79376;BME280;68846;53.150;18.136;2023-06-22T11:19:45;101410.67;;;27.49;37.01
79376;BME280;68846;53.150;18.136;2023-06-22T11:22:11;101398.75;;;27.52;36.97
79376;BME280;68846;53.150;18.136;2023-06-22T11:24:37;101407.40;;;27.68;36.64
79376;BME280;68846;53.150;18.136;2023-06-22T11:27:03;101404.66;;;27.73;37.03
79376;BME280;68846;53.150;18.136;2023-06-22T11:29:30;101402.20;;;27.82;36.68
79376;BME280;68846;53.150;18.136;2023-06-22T11:31:56;101398.66;;;27.88;36.06
79376;BME280;68846;53.150;18.136;2023-06-22T11:34:23;101396.77;;;27.97;36.68
79376;BME280;68846;53.150;18.136;2023-06-22T11:36:50;101406.27;;;28.09;35.80
79376;BME280;68846;53.150;18.136;2023-06-22T11:39:16;101404.63;;;28.17;35.47
79376;BME280;68846;53.150;18.136;2023-06-22T11:41:43;101407.19;;;28.27;35.76
79376;BME280;68846;53.150;18.136;2023-06-22T11:44:09;101398.96;;;28.43;35.36
79376;BME280;68846;53.150;18.136;2023-06-22T11:46:35;101400.46;;;28.52;34.44
79376;BME280;68846;53.150;18.136;2023-06-22T11:49:01;101392.63;;;28.59;34.51
79376;BME280;68846;53.150;18.136;2023-06-22T11:51:28;101399.65;;;28.74;34.64
79376;BME280;68846;53.150;18.136;2023-06-22T11:53:54;101406.23;;;28.90;34.11
79376;BME280;68846;53.150;18.136;2023-06-22T11:56:20;101404.77;;;28.94;33.87
79376;BME280;68846;53.150;18.136;2023-06-22T11:58:46;101398.44;;;28.97;33.83
79376;BME280;68846;53.150;18.136;2023-06-22T12:01:13;101394.52;;;28.99;33.59
79376;BME280;68846;53.150;18.136;2023-06-22T12:03:41;101396.50;;;29.09;33.86
79376;BME280;68846;53.150;18.136;2023-06-22T12:06:09;101390.82;;;29.27;32.40
79376;BME280;68846;53.150;18.136;2023-06-22T12:08:36;101390.44;;;29.33;32.27
79376;BME280;68846;53.150;18.136;2023-06-22T12:11:03;101390.08;;;29.43;32.12
79376;BME280;68846;53.150;18.136;2023-06-22T12:13:29;101382.25;;;29.53;32.16
79376;BME280;68846;53.150;18.136;2023-06-22T12:15:55;101374.60;;;29.69;32.16
79376;BME280;68846;53.150;18.136;2023-06-22T12:18:21;101373.85;;;29.85;31.39
79376;BME280;68846;53.150;18.136;2023-06-22T12:20:47;101368.09;;;29.94;30.88
79376;BME280;68846;53.150;18.136;2023-06-22T12:23:15;101370.55;;;30.01;30.29
79376;BME280;68846;53.150;18.136;2023-06-22T12:25:41;101371.36;;;30.08;30.80
79376;BME280;68846;53.150;18.136;2023-06-22T12:28:07;101365.06;;;30.15;30.52
79376;BME280;68846;53.150;18.136;2023-06-22T12:30:33;101364.39;;;30.25;30.74
79376;BME280;68846;53.150;18.136;2023-06-22T12:33:00;101359.55;;;30.42;30.61
79376;BME280;68846;53.150;18.136;2023-06-22T12:35:26;101364.27;;;30.60;30.47
79376;BME280;68846;53.150;18.136;2023-06-22T12:37:53;101362.95;;;30.73;29.22
79376;BME280;68846;53.150;18.136;2023-06-22T12:40:19;101356.55;;;30.79;29.45
79376;BME280;68846;53.150;18.136;2023-06-22T12:42:45;101360.80;;;30.83;29.36
79376;BME280;68846;53.150;18.136;2023-06-22T12:45:12;101357.25;;;30.94;29.08
79376;BME280;68846;53.150;18.136;2023-06-22T12:47:38;101354.65;;;31.03;29.38
79376;BME280;68846;53.150;18.136;2023-06-22T12:50:04;101353.66;;;31.10;29.28
79376;BME280;68846;53.150;18.136;2023-06-22T12:52:31;101350.23;;;31.21;29.08